Huvudsida
METAR-TAF:

METAR-TAF

Flygplatser :

Alta flygplats

Alta, Norge

latitud: 69-59N, longitud: 023-22E, höjd: 0 m

Aktuellt väderrapport

Denna rapport gjordes för 1 timme och 11 minuter sedan, klockan 06:50 UTC
Vind 3 kt varierande vindriktning
Temperatur 3°C
Fuktighet 81%
Tryck 1000 hPa
Sikt 10 km eller mer
Inga moln under 1 500 m eller inga cumulonimbus

METAR: ENAT 180650Z VRB03KT CAVOK 03/M00 Q1000 RMK WIND 700FT 15006KT

Tid: 10:01 (08:01 UTC)

Väderprognos

Denna rapport gjordes för 3 timmar och 1 minuter sedan, klockan 05:00 UTC
Prognos gäller från 18 kl. 06 UTC till 18 kl. 15 UTC
Vind 8 kt från syd/sydost
Sikt 10 km eller mer
Spridda moln på en höjd av 5000 ft

TAF: ENAT 180500Z 1806/1815 15008KT 9999 SCT050

Aktuella väderrapporter och prognoser från 4000 flygplatser (METAR- och TAF-rapporter).

De tillgängliga stationerna syns som gula och röda prickar på kartan.

För musen över prickarna för att se namnen på stationerna.

Klicka sedan för att få väderrapporter och prognoser.

För att ändra kartan: Klicka på de gröna knapparna med ett svart kors på för att zooma in; den gröna knappen med ett streck på för att zooma ut; eller på de gröna pilarna för angränsande kartor.


METAR-TAF: